createdAt,value
2022-12-24T00:01:21.878Z,13.73
2022-12-24T00:03:48.462Z,13.48
2022-12-24T00:06:24.747Z,18.00
2022-12-24T00:08:54.799Z,16.35
2022-12-24T00:11:24.055Z,9.43
2022-12-24T00:13:50.642Z,10.23
2022-12-24T00:16:17.324Z,8.77
2022-12-24T00:18:46.581Z,7.38
2022-12-24T00:21:13.844Z,11.52
2022-12-24T00:23:40.924Z,11.52
2022-12-24T00:26:08.499Z,8.52
2022-12-24T00:28:35.151Z,10.50
2022-12-24T00:31:10.617Z,12.00
2022-12-24T00:33:37.386Z,13.95
2022-12-24T00:36:04.141Z,10.75
2022-12-24T00:38:32.294Z,12.85
2022-12-24T00:41:00.911Z,11.18
2022-12-24T00:43:28.973Z,12.25
2022-12-24T00:45:56.318Z,10.43
2022-12-24T00:48:23.113Z,9.60
2022-12-24T00:50:50.949Z,9.00
2022-12-24T00:53:18.684Z,10.73
2022-12-24T00:55:45.161Z,8.07
2022-12-24T00:58:15.019Z,10.10
2022-12-24T01:00:41.552Z,10.05
2022-12-24T01:03:08.327Z,11.40
2022-12-24T01:05:34.996Z,12.82
2022-12-24T01:08:01.542Z,8.15
2022-12-24T01:10:35.852Z,8.68
2022-12-24T01:13:03.331Z,10.18
2022-12-24T01:15:29.973Z,9.55
2022-12-24T01:17:56.562Z,7.97
2022-12-24T01:20:22.996Z,8.63
2022-12-24T01:22:49.522Z,10.50
2022-12-24T01:25:16.057Z,11.10
2022-12-24T01:27:42.532Z,5.43
2022-12-24T01:30:13.172Z,6.60
2022-12-24T01:32:42.907Z,6.90
2022-12-24T01:35:13.318Z,6.18
2022-12-24T01:37:39.864Z,6.32
2022-12-24T01:40:32.677Z,5.93
2022-12-24T01:43:18.975Z,7.88
2022-12-24T01:46:01.683Z,9.73
2022-12-24T01:48:44.135Z,5.55
2022-12-24T01:51:19.705Z,8.52
2022-12-24T01:53:52.135Z,5.47
2022-12-24T01:56:20.978Z,6.97
2022-12-24T01:58:57.233Z,5.78
2022-12-24T02:01:24.520Z,9.90
2022-12-24T02:03:51.386Z,5.82
2022-12-24T02:06:20.719Z,6.53
2022-12-24T02:08:47.501Z,5.10
2022-12-24T02:11:22.119Z,8.20
2022-12-24T02:13:54.072Z,4.57
2022-12-24T02:20:01.206Z,7.20
2022-12-24T02:22:36.549Z,5.20
2022-12-24T02:25:15.051Z,6.20
2022-12-24T02:27:45.105Z,6.05
2022-12-24T02:30:16.990Z,5.88
2022-12-24T02:33:05.462Z,7.85
2022-12-24T02:35:58.292Z,2.08
2022-12-24T02:38:39.684Z,7.03
2022-12-24T02:41:22.513Z,5.25
2022-12-24T02:43:51.784Z,5.60
2022-12-24T02:46:24.217Z,6.22
2022-12-24T02:48:51.139Z,6.05
2022-12-24T02:51:23.402Z,5.88
2022-12-24T02:53:50.038Z,8.50
2022-12-24T02:56:25.623Z,7.78
2022-12-24T02:59:17.090Z,8.35
2022-12-24T03:02:04.788Z,5.03
2022-12-24T03:04:57.551Z,5.07
2022-12-24T03:07:36.954Z,4.18
2022-12-24T03:10:24.337Z,5.80
2022-12-24T03:12:55.935Z,5.38
2022-12-24T03:15:25.781Z,10.18
2022-12-24T03:17:56.329Z,6.82
2022-12-24T03:20:30.079Z,8.98
2022-12-24T03:22:57.265Z,8.38
2022-12-24T03:25:26.173Z,9.15
2022-12-24T03:27:53.618Z,9.65
2022-12-24T03:30:20.545Z,9.15
2022-12-24T03:32:47.236Z,8.00
2022-12-24T03:35:14.323Z,5.28
2022-12-24T03:37:41.081Z,9.73
2022-12-24T03:40:08.515Z,12.75
2022-12-24T03:42:35.111Z,9.05
2022-12-24T03:45:01.551Z,17.02
2022-12-24T03:47:28.118Z,11.13
2022-12-24T03:49:54.638Z,11.27
2022-12-24T03:52:21.148Z,12.18
2022-12-24T03:54:47.694Z,13.77
2022-12-24T03:57:14.180Z,14.65
2022-12-24T03:59:40.815Z,15.98
2022-12-24T04:02:07.447Z,16.45
2022-12-24T04:04:36.773Z,16.42
2022-12-24T04:07:04.797Z,20.42
2022-12-24T04:09:31.313Z,25.05
2022-12-24T04:11:57.812Z,19.42
2022-12-24T04:14:24.393Z,30.20
2022-12-24T04:16:50.896Z,24.10
2022-12-24T04:19:17.479Z,24.42
2022-12-24T04:21:43.919Z,28.00
2022-12-24T04:24:10.405Z,25.15
2022-12-24T04:26:36.861Z,25.77
2022-12-24T04:29:03.395Z,20.90
2022-12-24T04:31:30.028Z,22.63
2022-12-24T04:33:56.518Z,31.38
2022-12-24T04:36:23.062Z,20.10
2022-12-24T04:38:49.902Z,27.48
2022-12-24T04:41:23.867Z,29.48
2022-12-24T04:43:52.601Z,25.23
2022-12-24T04:46:22.025Z,23.67
2022-12-24T04:48:50.751Z,23.80
2022-12-24T04:51:18.529Z,28.77
2022-12-24T04:53:45.011Z,21.60
2022-12-24T04:56:17.160Z,27.38
2022-12-24T04:58:44.146Z,22.98
2022-12-24T05:01:17.933Z,22.13
2022-12-24T05:03:44.630Z,21.65
2022-12-24T05:06:14.654Z,27.25
2022-12-24T05:08:41.891Z,19.17
2022-12-24T05:11:08.406Z,26.00
2022-12-24T05:13:44.070Z,22.48
2022-12-24T05:16:13.285Z,23.20
2022-12-24T05:18:40.185Z,26.38
2022-12-24T05:21:25.545Z,26.85
2022-12-24T05:24:11.569Z,21.40
2022-12-24T05:26:58.797Z,29.55
2022-12-24T05:29:25.275Z,32.10
2022-12-24T05:31:51.727Z,18.60
2022-12-24T05:34:18.243Z,28.70
2022-12-24T05:36:45.400Z,31.15
2022-12-24T05:39:16.693Z,25.45
2022-12-24T05:41:44.546Z,27.38
2022-12-24T05:44:11.216Z,32.45
2022-12-24T05:46:37.953Z,27.33
2022-12-24T05:49:04.523Z,32.55
2022-12-24T05:51:31.008Z,28.60
2022-12-24T05:53:57.456Z,34.92
2022-12-24T05:56:24.761Z,27.25
2022-12-24T05:58:52.447Z,30.00
2022-12-24T06:01:20.156Z,37.97
2022-12-24T06:03:46.981Z,27.35
2022-12-24T06:06:23.515Z,26.88
2022-12-24T06:08:51.182Z,34.25
2022-12-24T06:11:20.519Z,29.27
2022-12-24T06:13:47.313Z,28.67
2022-12-24T06:16:18.870Z,31.65
2022-12-24T06:18:46.001Z,28.52
2022-12-24T06:21:13.120Z,28.55
2022-12-24T06:23:41.945Z,24.92
2022-12-24T06:26:11.299Z,35.75
2022-12-24T06:28:38.448Z,29.85
2022-12-24T06:31:07.543Z,30.95
2022-12-24T06:33:34.967Z,34.80
2022-12-24T06:36:01.905Z,31.15
2022-12-24T06:38:34.363Z,20.45
2022-12-24T06:41:08.636Z,33.05
2022-12-24T06:43:35.686Z,31.30
2022-12-24T06:46:03.930Z,34.28
2022-12-24T06:48:30.852Z,30.92
2022-12-24T06:50:57.321Z,32.10
2022-12-24T06:53:23.875Z,32.20
2022-12-24T06:55:50.399Z,33.67
2022-12-24T06:58:16.881Z,37.20
2022-12-24T07:00:43.319Z,40.75
2022-12-24T07:03:09.867Z,35.53
2022-12-24T07:05:36.300Z,34.35
2022-12-24T07:08:02.793Z,35.50
2022-12-24T07:10:29.304Z,35.03
2022-12-24T07:12:55.861Z,33.90
2022-12-24T07:15:22.386Z,39.88
2022-12-24T07:17:48.963Z,32.03
2022-12-24T07:20:15.647Z,32.92
2022-12-24T07:22:45.179Z,33.15
2022-12-24T07:25:11.933Z,27.83
2022-12-24T07:27:39.292Z,29.70
2022-12-24T07:30:06.964Z,32.78
2022-12-24T07:32:33.540Z,32.63
2022-12-24T07:35:00.123Z,27.45
2022-12-24T07:37:26.698Z,28.23
2022-12-24T07:39:53.182Z,27.67
2022-12-24T07:42:22.630Z,31.00
2022-12-24T07:44:51.721Z,29.67
2022-12-24T07:47:18.217Z,31.58
2022-12-24T07:49:44.775Z,28.80
2022-12-24T07:52:11.484Z,32.35
2022-12-24T07:54:37.967Z,39.90
2022-12-24T07:57:04.473Z,31.08
2022-12-24T07:59:30.988Z,37.53
2022-12-24T08:01:57.610Z,34.45
2022-12-24T08:04:24.534Z,28.40
2022-12-24T08:06:51.158Z,40.17
2022-12-24T08:09:17.624Z,31.48
2022-12-24T08:11:51.361Z,40.78
2022-12-24T08:14:18.381Z,48.22
2022-12-24T08:16:44.937Z,51.78
2022-12-24T08:19:11.486Z,60.63
2022-12-24T08:21:37.946Z,43.38
2022-12-24T08:24:04.942Z,31.33
2022-12-24T08:26:31.487Z,34.67
2022-12-24T08:29:04.393Z,50.50
2022-12-24T08:31:36.341Z,51.75
2022-12-24T08:34:08.981Z,36.15
2022-12-24T08:36:38.528Z,45.78
2022-12-24T08:39:05.778Z,41.72
2022-12-24T08:41:32.761Z,40.78
2022-12-24T08:44:02.710Z,43.83
2022-12-24T08:46:32.800Z,38.85
2022-12-24T08:48:59.258Z,34.17
2022-12-24T08:51:25.815Z,39.17
2022-12-24T08:53:52.350Z,50.90
2022-12-24T08:56:23.816Z,42.63
2022-12-24T08:58:50.346Z,34.85
2022-12-24T09:01:23.561Z,45.13
2022-12-24T09:03:50.237Z,41.50
2022-12-24T09:06:20.171Z,42.47
2022-12-24T09:08:46.666Z,37.58
2022-12-24T09:11:18.455Z,35.85
2022-12-24T09:13:45.020Z,42.38
2022-12-24T09:16:12.762Z,36.03
2022-12-24T09:18:39.443Z,44.65
2022-12-24T09:21:09.916Z,40.40
2022-12-24T09:23:44.308Z,32.08
2022-12-24T09:26:15.167Z,35.78
2022-12-24T09:28:41.809Z,43.38
2022-12-24T09:31:10.460Z,38.30
2022-12-24T09:33:38.790Z,35.28
2022-12-24T09:36:06.198Z,38.10
2022-12-24T09:38:33.512Z,37.70
2022-12-24T09:41:07.094Z,32.47
2022-12-24T09:43:37.626Z,34.08
2022-12-24T09:46:21.127Z,37.20
2022-12-24T09:49:02.237Z,31.58
2022-12-24T09:51:36.988Z,33.00
2022-12-24T09:54:14.383Z,20.70
2022-12-24T09:56:45.531Z,23.95
2022-12-24T09:59:20.308Z,27.97
2022-12-24T10:01:47.828Z,14.90
2022-12-24T10:04:16.912Z,16.58
2022-12-24T10:07:10.514Z,19.42
2022-12-24T10:09:52.112Z,15.25
2022-12-24T10:12:25.331Z,18.02
2022-12-24T10:15:19.404Z,24.42
2022-12-24T10:18:13.701Z,17.75
2022-12-24T10:20:49.683Z,21.23
2022-12-24T10:23:38.307Z,17.65
2022-12-24T10:26:15.677Z,19.17
2022-12-24T10:28:56.804Z,12.45
2022-12-24T10:31:31.866Z,9.63
2022-12-24T10:34:08.281Z,9.80
2022-12-24T10:36:37.536Z,11.15
2022-12-24T10:39:04.109Z,11.20
2022-12-24T10:41:31.683Z,9.30
2022-12-24T10:44:00.017Z,11.30
2022-12-24T10:46:38.153Z,9.57
2022-12-24T10:49:32.528Z,13.50
2022-12-24T10:52:35.548Z,12.02
2022-12-24T10:55:07.371Z,11.52
2022-12-24T10:57:34.315Z,16.20
2022-12-24T11:00:01.412Z,13.73
2022-12-24T11:02:36.941Z,16.60
2022-12-24T11:05:07.502Z,23.67
2022-12-24T11:07:37.482Z,17.38
2022-12-24T11:10:08.146Z,9.38
2022-12-24T11:12:38.950Z,9.77
2022-12-24T11:15:07.637Z,10.38
2022-12-24T11:17:34.454Z,11.45
2022-12-24T11:20:03.377Z,11.65
2022-12-24T11:22:32.537Z,9.45
2022-12-24T11:25:08.166Z,12.05
2022-12-24T11:27:49.712Z,19.10
2022-12-24T11:30:16.401Z,5.78
2022-12-24T11:32:44.778Z,5.75
2022-12-24T11:35:18.777Z,10.20
2022-12-24T11:37:45.256Z,11.70
2022-12-24T11:40:24.119Z,20.13
2022-12-24T11:42:53.822Z,10.40
2022-12-24T11:45:27.497Z,17.35
2022-12-24T11:47:54.532Z,22.02
2022-12-24T11:50:27.526Z,16.05
2022-12-24T11:53:04.356Z,12.15
2022-12-24T11:55:41.796Z,8.90
2022-12-24T11:58:20.236Z,11.20
2022-12-24T12:00:49.290Z,9.45
2022-12-24T12:03:35.799Z,10.27
2022-12-24T12:06:19.597Z,33.40
2022-12-24T12:08:47.632Z,32.13
2022-12-24T12:11:15.147Z,53.05
2022-12-24T12:13:45.983Z,23.88
2022-12-24T12:16:23.250Z,31.30
2022-12-24T12:19:05.636Z,26.58
2022-12-24T12:21:43.203Z,56.20
2022-12-24T12:24:19.530Z,73.20
2022-12-24T12:26:49.235Z,54.28
2022-12-24T12:29:15.623Z,42.47
2022-12-24T12:31:47.860Z,43.75
2022-12-24T12:34:23.758Z,61.95
2022-12-24T12:37:14.915Z,41.08
2022-12-24T12:39:42.507Z,32.03
2022-12-24T12:42:32.893Z,30.40
2022-12-24T12:45:28.327Z,38.10
2022-12-24T12:48:10.056Z,32.78
2022-12-24T12:50:58.499Z,35.03
2022-12-24T12:53:50.634Z,33.28
2022-12-24T12:56:37.737Z,41.15
2022-12-24T12:59:30.251Z,39.38
2022-12-24T13:02:18.439Z,37.42
2022-12-24T13:05:22.151Z,48.33
2022-12-24T13:08:08.899Z,32.38
2022-12-24T13:10:56.912Z,28.80
2022-12-24T13:13:44.662Z,32.88
2022-12-24T13:16:45.409Z,36.63
2022-12-24T13:19:23.076Z,35.63
2022-12-24T13:21:53.224Z,32.50
2022-12-24T13:24:22.702Z,33.67
2022-12-24T13:27:06.916Z,32.38
2022-12-24T13:29:33.319Z,35.90
2022-12-24T13:32:23.052Z,32.53
2022-12-24T13:34:52.374Z,31.38
2022-12-24T13:37:23.360Z,30.92
2022-12-24T13:40:08.467Z,41.40
2022-12-24T13:43:10.393Z,33.65
2022-12-24T13:45:36.825Z,45.47
2022-12-24T13:48:06.305Z,28.42
2022-12-24T13:50:38.669Z,46.03
2022-12-24T13:53:18.563Z,36.03
2022-12-24T13:56:08.353Z,33.60
2022-12-24T13:58:50.620Z,33.40
2022-12-24T14:01:21.422Z,32.60
2022-12-24T14:03:53.553Z,42.00
2022-12-24T14:08:57.857Z,35.72
2022-12-24T14:11:28.311Z,32.17
2022-12-24T14:14:05.738Z,33.70
2022-12-24T14:16:43.453Z,33.83
2022-12-24T14:19:18.595Z,29.92
2022-12-24T14:22:23.159Z,29.40
2022-12-24T14:24:58.780Z,31.70
2022-12-24T14:27:42.926Z,32.40
2022-12-24T14:30:30.535Z,30.48
2022-12-24T14:32:57.194Z,42.05
2022-12-24T14:35:42.003Z,38.20
2022-12-24T14:38:18.114Z,30.55
2022-12-24T14:41:09.359Z,34.92
2022-12-24T14:44:06.853Z,37.53
2022-12-24T14:46:48.611Z,30.95
2022-12-24T14:49:38.284Z,33.22
2022-12-24T14:55:35.294Z,37.45
2022-12-24T14:58:33.908Z,31.65
2022-12-24T15:01:03.248Z,30.10
2022-12-24T15:03:33.081Z,28.00
2022-12-24T15:06:04.032Z,38.17
2022-12-24T15:08:40.101Z,37.83
2022-12-24T15:11:09.276Z,38.22
2022-12-24T15:13:44.260Z,31.85
2022-12-24T15:16:13.913Z,34.70
2022-12-24T15:18:55.105Z,31.25
2022-12-24T15:21:32.924Z,34.95
2022-12-24T15:24:01.084Z,50.85
2022-12-24T15:26:36.697Z,36.85
2022-12-24T15:29:20.915Z,40.03
2022-12-24T15:31:53.396Z,34.72
2022-12-24T15:34:48.279Z,26.42
2022-12-24T15:37:39.674Z,29.05
2022-12-24T15:40:22.850Z,32.40
2022-12-24T15:42:49.644Z,36.92
2022-12-24T15:45:26.648Z,36.83
2022-12-24T15:48:00.528Z,31.38
2022-12-24T15:50:30.105Z,26.77
2022-12-24T15:53:20.564Z,35.13
2022-12-24T15:56:12.387Z,32.55
2022-12-24T15:58:44.548Z,38.63
2022-12-24T16:01:13.932Z,36.20
2022-12-24T16:03:54.794Z,49.53
2022-12-24T16:06:22.729Z,33.78
2022-12-24T16:08:50.952Z,38.97
2022-12-24T16:11:36.977Z,41.00
2022-12-24T16:14:20.202Z,33.47
2022-12-24T16:16:49.414Z,33.33
2022-12-24T16:19:22.723Z,32.67
2022-12-24T16:21:54.776Z,34.47
2022-12-24T16:26:52.715Z,40.75
2022-12-24T16:29:19.857Z,30.92
2022-12-24T16:31:58.312Z,38.20
2022-12-24T16:34:28.102Z,39.15
2022-12-24T16:36:55.416Z,34.63
2022-12-24T16:39:30.491Z,39.17
2022-12-24T16:42:18.276Z,40.53
2022-12-24T16:44:45.564Z,33.65
2022-12-24T16:47:25.019Z,35.00
2022-12-24T16:49:51.871Z,33.13
2022-12-24T16:52:22.226Z,32.28
2022-12-24T16:54:49.822Z,32.28
2022-12-24T16:57:16.714Z,26.33
2022-12-24T16:59:43.223Z,31.10
2022-12-24T17:02:15.017Z,39.75
2022-12-24T17:04:42.249Z,32.28
2022-12-24T17:07:10.782Z,30.52
2022-12-24T17:09:37.334Z,35.60
2022-12-24T17:12:05.602Z,39.75
2022-12-24T17:14:32.184Z,35.78
2022-12-24T17:16:58.753Z,36.15
2022-12-24T17:19:25.343Z,40.47
2022-12-24T17:21:51.802Z,36.42
2022-12-24T17:24:18.363Z,39.30
2022-12-24T17:26:44.942Z,42.15
2022-12-24T17:29:11.559Z,39.50
2022-12-24T17:31:39.282Z,35.33
2022-12-24T17:34:06.441Z,28.50
2022-12-24T17:36:32.946Z,31.63
2022-12-24T17:38:59.433Z,29.42
2022-12-24T17:41:26.028Z,42.42
2022-12-24T17:43:52.532Z,35.33
2022-12-24T17:46:22.478Z,28.83
2022-12-24T17:48:50.316Z,32.50
2022-12-24T17:51:19.233Z,33.33
2022-12-24T17:53:45.817Z,26.17
2022-12-24T17:56:14.239Z,31.15
2022-12-24T17:58:42.969Z,27.15
2022-12-24T18:01:19.233Z,28.95
2022-12-24T18:03:46.941Z,42.15
2022-12-24T18:06:14.020Z,68.28
2022-12-24T18:08:41.968Z,41.13
2022-12-24T18:11:23.695Z,37.65
2022-12-24T18:13:51.338Z,64.13
2022-12-24T18:16:25.354Z,94.82
2022-12-24T18:18:53.051Z,42.85
2022-12-24T18:21:21.853Z,39.05
2022-12-24T18:23:50.364Z,36.28
2022-12-24T18:26:18.729Z,22.35
2022-12-24T18:28:46.167Z,29.55
2022-12-24T18:31:18.397Z,29.45
2022-12-24T18:33:46.338Z,33.70
2022-12-24T18:36:15.932Z,30.75
2022-12-24T18:38:42.783Z,29.85
2022-12-24T18:41:15.805Z,37.03
2022-12-24T18:43:42.479Z,30.05
2022-12-24T18:46:11.170Z,36.75
2022-12-24T18:48:38.327Z,33.70
2022-12-24T18:51:06.616Z,35.00
2022-12-24T18:53:33.963Z,37.47
2022-12-24T18:56:10.647Z,36.10
2022-12-24T18:58:42.120Z,29.13
2022-12-24T19:01:17.573Z,28.40
2022-12-24T19:03:44.533Z,35.80
2022-12-24T19:06:11.567Z,33.17
2022-12-24T19:11:26.667Z,31.08
2022-12-24T19:13:53.450Z,40.13
2022-12-24T19:16:20.414Z,34.38
2022-12-24T19:18:47.260Z,35.63
2022-12-24T19:21:15.647Z,35.33
2022-12-24T19:23:42.338Z,34.38
2022-12-24T19:26:10.903Z,36.92
2022-12-24T19:28:38.009Z,41.00
2022-12-24T19:31:07.184Z,37.97
2022-12-24T19:33:43.229Z,44.00
2022-12-24T19:36:13.319Z,41.20
2022-12-24T19:38:40.786Z,46.33
2022-12-24T19:41:21.796Z,42.75
2022-12-24T19:43:51.415Z,36.30
2022-12-24T19:46:23.687Z,39.13
2022-12-24T19:48:52.192Z,37.72
2022-12-24T19:51:19.715Z,38.78
2022-12-24T19:53:47.610Z,40.70
2022-12-24T19:56:16.095Z,44.03
2022-12-24T19:58:42.788Z,41.30
2022-12-24T20:01:15.957Z,46.50
2022-12-24T20:03:43.565Z,41.15
2022-12-24T20:06:10.458Z,48.88
2022-12-24T20:08:38.898Z,41.00
2022-12-24T20:11:07.881Z,41.15
2022-12-24T20:13:35.240Z,42.03
2022-12-24T20:16:06.740Z,37.50
2022-12-24T20:18:33.662Z,42.13
2022-12-24T20:21:05.698Z,40.75
2022-12-24T20:26:04.281Z,37.65
2022-12-24T20:28:33.346Z,39.53
2022-12-24T20:30:59.895Z,37.42
2022-12-24T20:33:26.456Z,36.60
2022-12-24T20:35:53.268Z,32.40
2022-12-24T20:38:19.845Z,36.20
2022-12-24T20:40:47.168Z,33.45
2022-12-24T20:43:13.652Z,36.10
2022-12-24T20:45:40.929Z,36.45
2022-12-24T20:48:07.667Z,35.58
2022-12-24T20:50:34.157Z,36.30
2022-12-24T20:53:00.768Z,32.42
2022-12-24T20:55:27.445Z,31.73
2022-12-24T20:57:53.945Z,39.47
2022-12-24T21:00:21.026Z,33.22
2022-12-24T21:02:47.650Z,35.90
2022-12-24T21:05:14.351Z,35.95
2022-12-24T21:07:42.921Z,35.85
2022-12-24T21:10:11.311Z,31.33
2022-12-24T21:12:50.016Z,38.50
2022-12-24T21:15:21.973Z,28.63
2022-12-24T21:20:16.691Z,35.25
2022-12-24T21:22:43.670Z,40.20
2022-12-24T21:25:11.458Z,30.33
2022-12-24T21:27:38.470Z,37.05
2022-12-24T21:30:08.069Z,32.58
2022-12-24T21:32:35.781Z,33.85
2022-12-24T21:35:03.137Z,42.10
2022-12-24T21:37:29.701Z,38.90
2022-12-24T21:39:56.161Z,33.25
2022-12-24T21:42:22.680Z,39.22
2022-12-24T21:44:49.170Z,35.45
2022-12-24T21:47:15.698Z,32.67
2022-12-24T21:50:00.373Z,33.13
2022-12-24T21:52:26.938Z,32.40
2022-12-24T21:54:53.456Z,34.25
2022-12-24T21:57:38.517Z,38.10
2022-12-24T22:00:21.555Z,38.67
2022-12-24T22:02:57.118Z,30.95
2022-12-24T22:05:26.101Z,32.83
2022-12-24T22:08:15.479Z,37.28
2022-12-24T22:11:00.376Z,27.13
2022-12-24T22:13:29.831Z,36.08
2022-12-24T22:15:56.557Z,29.65
2022-12-24T22:18:26.815Z,24.80
2022-12-24T22:20:53.350Z,36.30
2022-12-24T22:23:20.139Z,30.98
2022-12-24T22:25:47.402Z,27.15
2022-12-24T22:28:14.354Z,31.63
2022-12-24T22:30:42.845Z,31.75
2022-12-24T22:33:09.777Z,33.33
2022-12-24T22:35:40.465Z,30.40
2022-12-24T22:38:09.255Z,21.10
2022-12-24T22:40:38.429Z,33.90
2022-12-24T22:43:04.898Z,33.58
2022-12-24T22:45:31.500Z,34.05
2022-12-24T22:47:58.031Z,34.78
2022-12-24T22:50:24.542Z,26.95
2022-12-24T22:52:52.597Z,42.05
2022-12-24T22:55:19.103Z,40.90
2022-12-24T22:57:45.581Z,30.85
2022-12-24T23:00:39.193Z,36.28
2022-12-24T23:03:06.335Z,31.08
2022-12-24T23:05:33.056Z,27.15
2022-12-24T23:07:59.749Z,26.60
2022-12-24T23:10:28.006Z,35.22
2022-12-24T23:13:15.057Z,25.17
2022-12-24T23:15:42.091Z,30.25
2022-12-24T23:18:09.080Z,34.80
2022-12-24T23:20:45.269Z,36.03
2022-12-24T23:23:12.366Z,37.40
2022-12-24T23:25:38.933Z,36.25
2022-12-24T23:28:06.100Z,29.73
2022-12-24T23:30:32.890Z,36.85
2022-12-24T23:32:59.478Z,31.70
2022-12-24T23:35:26.040Z,34.53
2022-12-24T23:37:52.539Z,29.90
2022-12-24T23:40:19.125Z,42.03
2022-12-24T23:42:45.584Z,30.50
2022-12-24T23:45:12.162Z,36.42
2022-12-24T23:47:38.822Z,35.65
2022-12-24T23:50:06.198Z,27.73
2022-12-24T23:52:32.697Z,29.92
2022-12-24T23:54:59.143Z,31.70
2022-12-24T23:57:25.644Z,33.90
2022-12-24T23:59:52.083Z,27.38
